Página principal
METAR-TAF:

METAR-TAF

Aeroportos :

Aeroporto Internacional de Tóquio

Tóquio-Haneda, Japão

latitude: 35-33N, longitude: 139-47E, altura: 5 m

Observação actual do tempo

O boletim foi feito há 16 minutos, às 14:09 UTC
Vento 11 kt de su-sudoeste, variando entre sul e sudoeste
Temperatura 28°C
Humidade 84%
Pressão 1010 hPa
Visibilidade 10 km ou mais
Poucas nuvensa uma altura de 700 ft
Nuvens fragmentadasa uma altura de 1200 ft

METAR: RJTT 181409Z 20011KT 170V230 9999 FEW007 BKN012 28/25 Q1010 RMK 1ST007 5ST012 A2984

Hora: 23:25 (14:25 UTC)

Previsão

O boletim foi feito há 3 horas e 20 minutos, às 11:05 UTC
Previsão válida de 18 às 12 UTC a 19 às 18 UTC
Vento 12 kt de sul
Visibilidade 10 km ou mais
Poucas nuvensa uma altura de 1500 ft

TAF: RJTT 181105Z 1812/1918 19012KT 9999 FEW015

Observações e previsões do tempo de mais de 4000 aeroportos (mensagens METAR e TAF).

As estações disponíveis são os pontos amarelos e vermelhos sobre o mapa.

Mova o rato sobre o mapa para ver o nome da estação.

Depois clique no ponto para visualizar as observações e previsões meteorológicas.

Para alterar o mapa : clique nos botões verdes com uma cruz preta para aumentar o zoom; no botão verde com uma pitada de zoom; ou nas setas verdes para mapas adjacentes.


METAR-TAF: